Latest Weather Observations for Forbes

IDN60801

Issued at 6:32 pm EDT Friday 12 February 2016 (issued every 30 minutes, with the page automatically refreshed every 10 minutes)

About weather observations | Map of weather stations | Latest weather observations for NSW | Other Formats
Station Details ID: 065103 Name: FORBES AIRPORT AWS Lat: -33.36 Lon: 147.92 Height: 230.4 m
Data from the previous 72 hours. | See also: Recent months at Forbes
Date/Time
EDT
Temp
°C
App
Temp
°C
Dew
Point
Rel
Hum
%
Delta-T
°C
Wind Press
QNH
hPa
Press
MSL
hPa
Rain
since 9 am
mm
Dir
 
Spd
km/h
Gust
km/h
Spd
kts
Gust
kts
12/06:30pm 34.4 33.0 9.6 22 14.4 WSW 7 17 4 9 1010.9 1009.6 0.0
12/06:00pm 34.6 33.1 10.4 23 14.2 NW 9 20 5 11 1010.9 1009.6 0.0
12/05:30pm 34.5 32.7 11.0 24 13.9 W 11 17 6 9 1011.1 1009.9 0.0
12/05:00pm 34.3 32.3 11.4 25 13.6 S 13 20 7 11 1011.1 1009.9 0.0
12/04:30pm 34.7 33.2 13.0 27 13.2 WSW 13 20 7 11 1011.3 1010.1 0.0
12/04:00pm 34.6 33.4 14.0 29 12.7 SW 13 24 7 13 1011.6 1010.4 0.0
12/03:30pm 33.8 33.3 13.8 30 12.3 WNW 9 22 5 12 1012.0 1010.8 0.0
12/03:00pm 34.3 33.5 15.2 31 12.0 SW 13 24 7 13 1012.4 1011.2 0.0
12/02:30pm 33.5 32.8 15.5 34 11.3 NW 13 20 7 11 1012.7 1011.5 0.0
12/02:00pm 33.6 35.0 16.5 36 10.9 ESE 4 19 2 10 1013.1 1011.9 0.0
12/01:30pm 32.2 32.4 15.7 37 10.4 NW 9 19 5 10 1013.4 1012.1 0.0
12/01:00pm 32.4 32.2 16.7 39 10.0 NW 13 22 7 12 1013.8 1012.5 0.0
12/12:30pm 31.9 32.6 17.0 41 9.5 WNW 9 20 5 11 1014.3 1013.0 0.0
12/12:00pm 30.9 31.2 16.9 43 8.9 NW 11 24 6 13 1014.7 1013.4 0.0
12/11:30am 30.2 30.6 17.3 46 8.2 WNW 11 17 6 9 1015.0 1013.8 0.0
12/11:00am 29.9 30.9 17.7 48 7.8 ESE 9 15 5 8 1015.3 1014.1 0.0
12/10:30am 27.8 28.2 16.4 50 7.1 NE 9 17 5 9 1015.3 1014.1 0.0
12/10:00am 27.1 27.2 16.4 52 6.7 ENE 11 19 6 10 1015.4 1014.2 0.0
12/09:30am 26.4 26.0 16.3 53 6.3 E 13 22 7 12 1015.5 1014.3 0.0
12/09:00am 24.8 25.0 15.7 57 5.6 E 9 15 5 8 1015.5 1014.3 0.0
12/08:30am 23.2 21.9 14.7 58 5.1 E 15 19 8 10 1015.3 1014.1 0.0
12/08:00am 21.5 20.0 13.2 59 4.8 E 13 15 7 8 1014.9 1013.7 0.0
12/07:30am 19.5 17.8 11.3 59 4.5 ESE 11 15 6 8 1014.6 1013.3 0.0
12/07:00am 18.4 16.7 9.7 57 4.7 ESE 9 15 5 8 1014.2 1012.9 0.0
12/06:30am 17.2 15.7 8.4 56 4.6 SSE 6 7 3 4 1013.8 1012.5 0.0
12/06:00am 17.6 16.4 8.2 54 4.9 E 4 7 2 4 1013.2 1012.0 0.0
12/05:30am 17.4 15.2 7.7 53 5.0 ESE 9 9 5 5 1012.9 1011.7 0.0
12/05:00am 17.5 15.2 7.5 52 5.1 NE 9 9 5 5 1012.5 1011.3 0.0
12/04:30am 18.0 15.7 7.4 50 5.4 ENE 9 11 5 6 1012.6 1011.4 0.0
12/04:00am 18.3 17.7 7.4 49 5.6 CALM 0 0 0 0 1012.8 1011.6 0.0
12/03:30am 18.2 15.7 6.7 47 5.8 NNE 9 11 5 6 1013.0 1011.8 0.0
12/03:00am 19.4 16.3 7.2 45 6.3 NNE 13 15 7 8 1013.1 1011.9 0.0
12/02:30am 19.0 16.0 6.2 43 6.4 N 11 13 6 7 1013.5 1012.2 0.0
12/02:00am 18.9 15.7 5.0 40 6.8 NNE 11 15 6 8 1013.9 1012.6 0.0
12/01:30am 20.7 17.3 5.9 38 7.5 ENE 13 17 7 9 1014.1 1012.8 0.0
12/01:00am 21.4 18.7 5.7 36 7.9 E 9 13 5 7 1014.2 1012.9 0.0
12/12:30am 20.7 17.0 4.3 34 8.0 ENE 13 15 7 8 1014.3 1013.0 0.0
12/12:00am 22.7 20.3 5.2 32 8.8 E 7 9 4 5 1014.6 1013.3 0.0
 
Date/Time
EDT
Temp
°C
App
Temp
°C
Dew
Point
Rel
Hum
%
Delta-T
°C
Wind Press
QNH
hPa
Press
MSL
hPa
Rain
since 9 am
mm
Dir
 
Spd
km/h
Gust
km/h
Spd
kts
Gust
kts
11/11:30pm 22.3 18.5 3.9 30 9.0 NE 13 17 7 9 1014.6 1013.3 0.0
11/11:00pm 23.5 19.8 4.5 29 9.5 N 13 17 7 9 1014.1 1012.8 0.0
11/10:30pm 22.9 20.5 2.4 26 9.8 NE 4 15 2 8 1013.4 1012.1 0.0
11/10:00pm 25.0 21.1 3.6 25 10.6 NNW 13 13 7 7 1012.6 1011.4 0.0
11/09:30pm 27.3 22.5 4.4 23 11.7 NW 19 26 10 14 1012.1 1010.9 0.0
11/09:00pm 28.1 22.0 3.0 20 12.6 NNW 24 30 13 16 1011.4 1010.2 0.0
11/08:30pm 28.3 25.3 1.7 18 13.1 SSW 7 7 4 4 1010.4 1009.1 0.0
11/08:00pm 30.6 27.9 3.6 18 13.9 SSW 7 9 4 5 1010.2 1008.9 0.0
11/07:30pm 32.1 29.2 4.8 18 14.5 SW 9 11 5 6 1009.8 1008.5 0.0
11/07:00pm 32.9 29.4 5.5 18 14.8 SW 13 17 7 9 1009.5 1008.2 0.0
11/06:30pm 34.4 30.4 6.7 18 15.3 SW 17 22 9 12 1009.2 1007.9 0.0
11/06:00pm 35.4 31.4 8.3 19 15.5 SW 19 28 10 15 1008.9 1007.6 0.0
11/05:30pm 35.8 31.9 8.6 19 15.6 SW 19 28 10 15 1008.8 1007.5 0.0
11/05:00pm 35.4 32.0 9.0 20 15.2 W 17 24 9 13 1008.8 1007.5 0.0
11/04:30pm 36.0 31.4 10.9 22 14.9 SW 26 35 14 19 1009.0 1007.7 0.0
11/04:00pm 35.8 32.6 11.4 23 14.6 WSW 19 28 10 15 1009.5 1008.2 0.0
11/03:30pm 35.2 31.3 12.2 25 13.9 W 24 35 13 19 1009.9 1008.6 0.0
11/03:00pm 35.0 32.6 12.6 26 13.6 SW 17 28 9 15 1010.4 1009.1 0.0
11/02:30pm 35.3 32.2 13.5 27 13.4 W 22 30 12 16 1010.7 1009.4 0.0
11/02:00pm 35.3 32.8 14.0 28 13.2 W 20 33 11 18 1011.1 1009.9 0.0
11/01:30pm 34.9 31.7 14.2 28 12.8 W 24 35 13 19 1011.5 1010.3 0.0
11/01:00pm 34.8 32.3 15.2 31 12.3 WNW 22 33 12 18 1011.6 1010.4 0.0
11/12:30pm 34.5 31.7 15.4 32 12.0 W 24 41 13 22 1012.0 1010.8 0.0
11/12:00pm 33.4 31.0 15.4 34 11.3 NW 22 33 12 18 1012.3 1011.1 0.0
11/11:30am 33.3 30.8 16.2 36 10.9 NNW 24 32 13 17 1012.8 1011.6 0.0
11/11:00am 32.1 29.4 15.6 37 10.4 NNW 24 33 13 18 1012.9 1011.7 0.0
11/10:30am 31.4 29.3 16.2 40 9.6 NNW 22 32 12 17 1013.0 1011.8 0.0
11/10:00am 30.8 28.6 16.8 43 8.9 NNW 24 32 13 17 1013.0 1011.8 0.0
11/09:30am 28.9 26.5 16.5 47 7.8 NNW 24 33 13 18 1013.1 1011.9 0.0
11/09:00am 27.7 25.3 16.3 49 7.1 N 24 32 13 17 1013.1 1011.9 0.0
11/08:30am 25.5 23.6 15.2 53 6.3 N 19 26 10 14 1013.0 1011.8 0.0
11/08:00am 22.6 22.1 12.5 53 5.8 NNE 7 9 4 5 1013.0 1011.8 0.0
11/07:30am 22.3 21.3 12.3 53 5.7 N 9 11 5 6 1012.6 1011.4 0.0
11/07:00am 21.2 19.4 11.0 52 5.7 N 11 15 6 8 1012.1 1010.9 0.0
11/06:30am 21.3 18.3 10.8 51 5.8 NNE 17 19 9 10 1011.7 1010.5 0.0
11/06:00am 22.2 19.4 11.3 50 6.1 NNE 17 20 9 11 1011.3 1010.1 0.0
11/05:30am 22.1 19.2 10.9 49 6.2 NNE 17 20 9 11 1011.2 1010.0 0.0
11/05:00am 21.5 20.5 10.3 49 6.2 N 6 9 3 5 1011.0 1009.8 0.0
11/04:30am 22.6 21.8 11.0 48 6.5 N 6 9 3 5 1010.9 1009.6 0.0
11/04:00am 20.9 18.3 9.5 48 6.2 N 13 15 7 8 1010.8 1009.5 0.0
11/03:30am 22.1 19.4 10.3 47 6.5 N 15 19 8 10 1010.8 1009.5 0.0
11/03:00am 21.5 18.5 9.4 46 6.6 NE 15 24 8 13 1011.0 1009.8 0.0
11/02:30am 20.8 19.2 8.1 44 6.7 N 6 7 3 4 1011.0 1009.8 0.0
11/02:00am 21.0 18.8 8.0 43 6.8 N 9 13 5 7 1011.1 1009.9 0.0
11/01:30am 21.6 18.6 7.8 41 7.3 NNE 13 17 7 9 1011.3 1010.1 0.0
11/01:00am 21.7 19.9 7.2 39 7.6 ENE 6 11 3 6 1011.5 1010.3 0.0
11/12:30am 22.1 20.3 7.1 38 7.8 NNE 6 9 3 5 1011.5 1010.3 0.0
11/12:00am 24.3 22.7 8.7 37 8.5 S 7 9 4 5 1011.6 1010.4 0.0
 
Date/Time
EDT
Temp
°C
App
Temp
°C
Dew
Point
Rel
Hum
%
Delta-T
°C
Wind Press
QNH
hPa
Press
MSL
hPa
Rain
since 9 am
mm
Dir
 
Spd
km/h
Gust
km/h
Spd
kts
Gust
kts
10/11:30pm 23.3 22.6 7.0 35 8.5 CALM 0 0 0 0 1011.4 1010.2 0.0
10/11:00pm 23.5 21.6 6.7 34 8.8 NNW 6 9 3 5 1011.3 1010.1 0.0
10/10:30pm 24.7 22.0 7.4 33 9.2 NNE 11 13 6 7 1011.4 1010.2 0.0
10/10:00pm 25.4 23.4 7.1 31 9.7 NNE 7 9 4 5 1011.4 1010.2 0.0
10/09:30pm 26.8 25.2 7.8 30 10.3 NE 6 7 3 4 1011.2 1010.0 0.0
10/09:00pm 27.0 24.6 6.9 28 10.7 N 9 11 5 6 1011.0 1009.8 0.0
10/08:30pm 28.8 27.2 7.9 27 11.5 NNW 6 9 3 5 1010.9 1009.6 0.0
10/08:00pm 31.4 30.2 10.2 27 12.2 NW 7 9 4 5 1010.8 1009.5 0.0
10/07:30pm 33.6 32.5 12.0 27 12.9 W 9 13 5 7 1010.6 1009.3 0.0
10/07:00pm 34.3 32.6 12.6 27 13.1 WNW 13 19 7 10 1010.4 1009.1 0.0
10/06:30pm 34.8 34.8 13.6 28 13.0 W 6 13 3 7 1010.4 1009.1 0.0
10/06:00pm 34.5 34.0 13.9 29 12.7 S 9 19 5 10 1010.4 1009.1 0.0
10/05:30pm 33.9 32.3 13.9 30 12.3 SW 15 20 8 11 1010.5 1009.2 0.0
10/05:00pm 33.4 31.8 14.0 31 12.0 WSW 15 22 8 12 1010.7 1009.4 0.0
10/04:30pm 34.3 34.3 15.2 31 12.0 WSW 9 24 5 13 1010.8 1009.5 0.0
10/04:00pm 34.0 33.7 15.5 33 11.7 W 11 20 6 11 1011.2 1010.0 0.0
10/03:30pm 33.8 33.4 16.2 35 11.2 WSW 13 22 7 12 1011.6 1010.4 0.0
10/03:00pm 33.4 33.6 16.7 36 10.7 SW 11 19 6 10 1012.1 1010.9 0.0
10/02:30pm 33.1 33.0 16.9 38 10.4 W 13 24 7 13 1012.5 1011.3 0.0
10/02:00pm 32.3 31.5 17.0 40 9.8 NNW 17 26 9 14 1012.9 1011.7 0.0
10/01:30pm 31.9 31.6 17.4 42 9.3 WNW 15 22 8 12 1013.5 1012.2 0.0
10/01:00pm 30.8 30.0 17.1 43 8.7 WNW 17 30 9 16 1014.1 1012.8 0.0
10/12:30pm 30.6 29.5 17.7 46 8.3 NW 20 30 11 16 1014.7 1013.4 0.0
10/12:00pm 30.1 29.6 17.9 48 7.9 NNW 17 30 9 16 1014.9 1013.7 0.0
10/11:30am 28.6 27.3 17.2 50 7.2 NNW 20 28 11 15 1015.3 1014.1 0.0
10/11:00am 28.5 27.7 18.0 53 6.7 NNW 19 28 10 15 1015.7 1014.5 0.0
10/10:30am 27.1 26.4 17.3 55 6.2 N 17 24 9 13 1016.1 1014.9 0.0
10/10:00am 25.8 25.2 16.6 56 5.7 NNW 15 22 8 12 1016.4 1015.2 0.0
10/09:30am 24.8 23.8 16.5 60 5.1 N 17 24 9 13 1016.4 1015.2 0.0
10/09:00am 24.0 21.9 16.3 62 4.7 NE 22 28 12 15 1016.0 1014.8 0.0
10/08:30am 23.1 21.4 16.2 65 4.2 NNE 20 28 11 15 1016.1 1014.9 0.0
10/08:00am 21.6 20.0 15.0 66 3.9 NNE 17 20 9 11 1016.1 1014.9 0.0
10/07:30am 20.3 19.8 13.7 66 3.8 NNE 9 11 5 6 1016.0 1014.8 0.0
10/07:00am 19.5 19.0 12.8 65 3.8 NNE 7 11 4 6 1016.0 1014.8 0.0
10/06:30am 19.6 18.7 12.6 64 4.0 NNE 9 15 5 8 1015.5 1014.3 0.0
10/06:00am 20.1 17.7 12.6 62 4.3 NNE 17 20 9 11 1014.9 1013.7 0.0
10/05:30am 19.9 17.4 12.2 61 4.3 N 17 20 9 11 1014.7 1013.4 0.0
10/05:00am 19.8 17.5 11.6 59 4.6 NNE 15 19 8 10 1014.5 1013.2 0.0
10/04:30am 20.2 18.2 11.4 57 4.9 NNE 13 15 7 8 1014.6 1013.3 0.0
10/04:00am 21.0 19.0 11.6 55 5.3 NNE 13 19 7 10 1014.6 1013.3 0.0
10/03:30am 21.3 18.9 11.3 53 5.6 N 15 17 8 9 1014.5 1013.2 0.0
10/03:00am 22.1 20.1 11.5 51 6.0 NNE 13 15 7 8 1014.6 1013.3 0.0
10/02:30am 22.9 20.3 11.9 50 6.3 NNE 17 20 9 11 1014.9 1013.7 0.0
10/02:00am 23.4 21.1 11.8 48 6.6 NNE 15 20 8 11 1015.1 1013.9 0.0
10/01:30am 23.5 21.0 11.2 46 6.9 NNE 15 19 8 10 1015.0 1013.8 0.0
10/01:00am 23.3 21.4 10.4 44 7.2 NNE 11 13 6 7 1015.2 1014.0 0.0
10/12:30am 23.4 21.3 9.8 42 7.5 NNE 11 11 6 6 1015.3 1014.1 0.0
10/12:00am 24.8 22.1 10.3 40 8.1 N 15 17 8 9 1015.3 1014.1 0.0
 
Date/Time
EDT
Temp
°C
App
Temp
°C
Dew
Point
Rel
Hum
%
Delta-T
°C
Wind Press
QNH
hPa
Press
MSL
hPa
Rain
since 9 am
mm
Dir
 
Spd
km/h
Gust
km/h
Spd
kts
Gust
kts
09/11:30pm 26.7 23.5 11.2 38 8.9 NNE 19 24 10 13 1015.4 1014.2 0.0
09/11:00pm 25.3 23.2 9.6 37 8.7 ENE 11 22 6 12 1015.3 1014.1 0.0
09/10:30pm 26.4 26.5 10.1 36 9.2 CALM 0 0 0 0 1015.3 1014.1 0.0
09/10:00pm 26.4 25.1 9.3 34 9.5 ENE 6 11 3 6 1015.3 1014.1 0.0
09/09:30pm 27.1 26.9 9.0 32 10.0 CALM 0 0 0 0 1015.1 1013.9 0.0
09/09:00pm 27.6 26.2 9.0 31 10.3 NNW 6 7 3 4 1014.9 1013.7 0.0
09/08:30pm 28.8 28.3 9.5 30 10.9 SE 2 7 1 4 1014.7 1013.4 0.0
09/08:00pm 30.4 28.3 9.8 28 11.7 ENE 11 15 6 8 1014.7 1013.4 0.0
09/07:30pm 32.6 32.0 11.7 28 12.4 E 6 9 3 5 1014.5 1013.2 0.0
09/07:00pm 33.3 32.9 12.3 28 12.6 SE 6 11 3 6 1014.1 1012.8 0.0

Other Formats:

Comma delimited format used in spreadsheet applications
http://www.bom.gov.au/fwo/IDN60801/IDN60801.94715.axf

JavaScript Object Notation format (JSON) in row-major order
http://www.bom.gov.au/fwo/IDN60801/IDN60801.94715.json